createdAt,value
2018-07-11T00:01:12.523Z,12.50
2018-07-11T00:03:47.888Z,12.50
2018-07-11T00:06:18.372Z,12.40
2018-07-11T00:08:47.433Z,12.30
2018-07-11T00:11:16.752Z,12.30
2018-07-11T00:13:46.716Z,12.30
2018-07-11T00:16:16.588Z,12.20
2018-07-11T00:21:14.603Z,12.10
2018-07-11T00:23:43.680Z,12.00
2018-07-11T00:26:12.952Z,11.90
2018-07-11T00:28:42.624Z,11.90
2018-07-11T00:31:11.900Z,11.80
2018-07-11T00:33:40.905Z,11.70
2018-07-11T00:36:10.048Z,11.70
2018-07-11T00:38:39.603Z,11.80
2018-07-11T00:41:08.750Z,11.80
2018-07-11T00:43:37.909Z,11.80
2018-07-11T00:46:07.092Z,11.90
2018-07-11T00:48:36.522Z,11.90
2018-07-11T00:51:05.646Z,11.90
2018-07-11T00:53:35.933Z,11.90
2018-07-11T00:58:44.786Z,12.00
2018-07-11T01:01:16.529Z,12.00
2018-07-11T01:03:58.411Z,12.00
2018-07-11T01:06:28.291Z,12.00
2018-07-11T01:11:32.789Z,11.90
2018-07-11T01:14:02.503Z,11.90
2018-07-11T01:19:04.598Z,11.90
2018-07-11T01:21:35.388Z,11.90
2018-07-11T01:24:05.561Z,11.90
2018-07-11T01:26:39.775Z,11.90
2018-07-11T01:29:10.088Z,11.90
2018-07-11T01:31:39.966Z,12.00
2018-07-11T01:36:39.034Z,12.10
2018-07-11T01:39:09.343Z,12.10
2018-07-11T01:41:39.972Z,12.00
2018-07-11T01:44:09.528Z,11.90
2018-07-11T01:46:47.214Z,11.80
2018-07-11T01:49:17.110Z,11.70
2018-07-11T01:51:58.495Z,11.60
2018-07-11T01:54:29.232Z,11.60
2018-07-11T01:56:59.429Z,11.60
2018-07-11T01:59:34.236Z,11.50
2018-07-11T02:02:04.990Z,11.50
2018-07-11T02:04:36.913Z,11.50
2018-07-11T02:07:07.674Z,11.60
2018-07-11T02:09:38.081Z,11.60
2018-07-11T02:12:08.007Z,11.70
2018-07-11T02:14:38.618Z,11.70
2018-07-11T02:19:36.480Z,11.80
2018-07-11T02:22:05.594Z,11.80
2018-07-11T02:24:34.760Z,11.80
2018-07-11T02:27:03.985Z,11.90
2018-07-11T02:29:33.579Z,11.90
2018-07-11T02:32:02.865Z,11.80
2018-07-11T02:37:03.793Z,11.90
2018-07-11T02:39:33.221Z,11.80
2018-07-11T02:42:02.407Z,11.80
2018-07-11T02:44:31.564Z,11.80
2018-07-11T02:49:35.321Z,11.70
2018-07-11T02:52:04.757Z,11.70
2018-07-11T02:54:34.109Z,11.80
2018-07-11T02:57:03.441Z,11.70
2018-07-11T02:59:32.567Z,11.70
2018-07-11T03:02:01.689Z,11.70
2018-07-11T03:04:31.004Z,11.70
2018-07-11T03:09:28.986Z,11.70
2018-07-11T03:11:58.452Z,11.60
2018-07-11T03:14:27.802Z,11.50
2018-07-11T03:16:57.040Z,11.50
2018-07-11T03:19:26.241Z,11.40
2018-07-11T03:21:55.430Z,11.30
2018-07-11T03:24:24.585Z,11.30
2018-07-11T03:26:54.354Z,11.30
2018-07-11T03:31:52.353Z,11.40
2018-07-11T03:34:21.680Z,11.50
2018-07-11T03:36:50.732Z,11.60
2018-07-11T03:39:19.927Z,11.70
2018-07-11T03:41:48.994Z,11.80
2018-07-11T03:44:17.996Z,11.80
2018-07-11T03:46:47.329Z,11.80
2018-07-11T03:49:16.618Z,11.80
2018-07-11T03:51:45.991Z,11.80
2018-07-11T03:54:15.243Z,11.70
2018-07-11T03:56:44.486Z,11.70
2018-07-11T03:59:13.645Z,11.70
2018-07-11T04:01:43.065Z,11.70
2018-07-11T04:04:12.257Z,11.80
2018-07-11T04:09:10.277Z,12.00
2018-07-11T04:11:39.503Z,12.00
2018-07-11T04:19:06.334Z,12.20
2018-07-11T04:21:35.644Z,12.20
2018-07-11T04:24:04.901Z,12.20
2018-07-11T04:26:34.211Z,12.30
2018-07-11T04:29:03.601Z,12.40
2018-07-11T04:31:32.865Z,12.40
2018-07-11T04:34:01.970Z,12.50
2018-07-11T04:36:31.947Z,12.50
2018-07-11T04:41:30.183Z,12.70
2018-07-11T04:43:59.493Z,12.80
2018-07-11T04:46:29.029Z,13.00
2018-07-11T04:48:58.774Z,13.20
2018-07-11T04:51:28.458Z,13.20
2018-07-11T04:53:58.020Z,13.40
2018-07-11T04:56:27.723Z,13.60
2018-07-11T04:58:56.950Z,13.70
2018-07-11T05:01:26.225Z,13.70
2018-07-11T05:03:55.536Z,14.20
2018-07-11T05:06:24.650Z,16.00
2018-07-11T05:08:53.822Z,17.00
2018-07-11T05:11:22.836Z,16.80
2018-07-11T05:13:51.951Z,17.20
2018-07-11T05:16:21.208Z,17.90
2018-07-11T05:18:50.312Z,17.70
2018-07-11T05:21:19.657Z,17.70
2018-07-11T05:26:17.492Z,18.10
2018-07-11T05:28:46.570Z,18.20
2018-07-11T05:31:15.873Z,17.80
2018-07-11T05:33:45.076Z,17.50
2018-07-11T05:38:42.934Z,17.00
2018-07-11T05:41:12.170Z,16.70
2018-07-11T05:43:41.398Z,16.50
2018-07-11T05:46:10.522Z,16.30
2018-07-11T05:48:39.820Z,16.80
2018-07-11T05:51:08.920Z,19.40
2018-07-11T05:53:38.186Z,21.20
2018-07-11T05:56:07.285Z,21.70
2018-07-11T05:58:36.678Z,21.70
2018-07-11T06:01:05.759Z,20.90
2018-07-11T06:03:34.933Z,20.20
2018-07-11T06:06:04.112Z,19.70
2018-07-11T06:08:33.282Z,19.30
2018-07-11T06:11:02.835Z,18.70
2018-07-11T06:13:32.024Z,18.30
2018-07-11T06:16:00.994Z,18.00
2018-07-11T06:18:30.270Z,17.90
2018-07-11T06:20:59.505Z,17.90
2018-07-11T06:23:28.606Z,17.90
2018-07-11T06:25:57.646Z,17.80
2018-07-11T06:28:27.003Z,17.70
2018-07-11T06:30:56.290Z,17.60
2018-07-11T06:33:25.524Z,17.60
2018-07-11T06:35:54.594Z,17.80
2018-07-11T06:38:23.670Z,17.70
2018-07-11T06:43:21.532Z,18.00
2018-07-11T06:48:19.841Z,18.30
2018-07-11T06:50:49.056Z,18.60
2018-07-11T06:53:18.335Z,18.80
2018-07-11T06:55:47.400Z,18.90
2018-07-11T06:58:16.669Z,19.10
2018-07-11T07:00:45.811Z,19.40
2018-07-11T07:03:15.023Z,20.10
2018-07-11T07:05:44.768Z,21.30
2018-07-11T07:08:14.000Z,22.40
2018-07-11T07:10:43.208Z,23.30
2018-07-11T07:13:12.430Z,23.00
2018-07-11T07:15:41.779Z,22.40
2018-07-11T07:18:11.052Z,21.60
2018-07-11T07:20:40.273Z,21.40
2018-07-11T07:23:09.674Z,21.50
2018-07-11T07:25:38.898Z,21.80
2018-07-11T07:28:08.074Z,22.10
2018-07-11T07:30:37.418Z,22.50
2018-07-11T07:33:06.600Z,22.60
2018-07-11T07:35:35.809Z,22.60
2018-07-11T07:38:05.401Z,22.70
2018-07-11T07:40:34.555Z,22.70
2018-07-11T07:43:03.684Z,22.80
2018-07-11T07:45:32.895Z,23.00
2018-07-11T07:48:02.305Z,23.10
2018-07-11T07:53:00.343Z,23.80
2018-07-11T07:55:29.589Z,25.20
2018-07-11T07:57:58.876Z,26.30
2018-07-11T08:00:28.149Z,26.90
2018-07-11T08:05:26.400Z,27.10
2018-07-11T08:07:55.524Z,26.80
2018-07-11T08:10:24.730Z,27.20
2018-07-11T08:12:53.749Z,27.70
2018-07-11T08:15:22.862Z,28.50
2018-07-11T08:17:51.954Z,28.70
2018-07-11T08:23:32.710Z,28.20
2018-07-11T08:26:13.103Z,27.90
2018-07-11T08:29:54.763Z,28.20
2018-07-11T08:33:35.171Z,30.50
2018-07-11T08:36:30.359Z,34.00
2018-07-11T08:39:09.662Z,36.00
2018-07-11T08:41:49.957Z,35.70
2018-07-11T08:44:32.263Z,35.50
2018-07-11T08:47:24.624Z,35.00
2018-07-11T08:50:12.159Z,36.60
2018-07-11T08:55:02.520Z,38.30
2018-07-11T09:01:23.191Z,34.10
2018-07-11T09:05:34.684Z,33.60
2018-07-11T09:09:53.985Z,35.60
2018-07-11T09:17:13.776Z,35.60
2018-07-11T09:22:05.677Z,31.00
2018-07-11T09:24:40.778Z,31.50
2018-07-11T09:29:39.991Z,34.40
2018-07-11T09:32:09.854Z,35.50
2018-07-11T09:37:08.017Z,32.50
2018-07-11T09:39:37.141Z,32.70
2018-07-11T09:42:06.936Z,32.30
2018-07-11T09:44:36.195Z,32.40
2018-07-11T09:47:10.759Z,33.20
2018-07-11T09:52:08.613Z,33.70
2018-07-11T09:54:37.683Z,33.00
2018-07-11T09:57:06.866Z,32.40
2018-07-11T09:59:36.134Z,32.80
2018-07-11T10:02:05.560Z,32.50
2018-07-11T10:07:04.976Z,32.10
2018-07-11T10:09:34.227Z,30.00
2018-07-11T10:12:03.601Z,29.00
2018-07-11T10:14:32.715Z,28.20
2018-07-11T10:17:02.022Z,27.70
2018-07-11T10:22:00.324Z,26.40
2018-07-11T10:24:29.726Z,25.70
2018-07-11T10:26:59.076Z,25.40
2018-07-11T10:29:28.621Z,25.10
2018-07-11T10:31:57.795Z,24.70
2018-07-11T10:34:26.910Z,24.40
2018-07-11T10:36:56.406Z,24.10
2018-07-11T10:39:25.668Z,23.80
2018-07-11T10:41:54.866Z,23.60
2018-07-11T10:44:23.868Z,23.40
2018-07-11T10:46:59.374Z,23.10
2018-07-11T10:51:57.542Z,22.80
2018-07-11T10:54:26.772Z,22.70
2018-07-11T10:56:55.988Z,22.70
2018-07-11T10:59:25.278Z,22.70
2018-07-11T11:01:55.489Z,22.80
2018-07-11T11:06:53.474Z,22.60
2018-07-11T11:09:22.786Z,22.60
2018-07-11T11:11:52.099Z,22.70
2018-07-11T11:14:21.456Z,22.80
2018-07-11T11:16:50.527Z,23.00
2018-07-11T11:19:19.648Z,23.30
2018-07-11T11:21:49.074Z,23.70
2018-07-11T11:24:18.223Z,24.20
2018-07-11T11:29:16.051Z,24.70
2018-07-11T11:31:45.113Z,24.60
2018-07-11T11:34:14.229Z,24.20
2018-07-11T11:36:43.439Z,23.90
2018-07-11T11:39:12.749Z,23.80
2018-07-11T11:41:42.020Z,23.90
2018-07-11T11:46:39.886Z,24.50
2018-07-11T11:49:09.060Z,25.00
2018-07-11T11:51:38.196Z,25.40
2018-07-11T11:56:36.025Z,26.10
2018-07-11T11:59:05.286Z,26.20
2018-07-11T12:01:34.568Z,26.30
2018-07-11T12:04:03.858Z,26.50
2018-07-11T12:06:33.201Z,26.70
2018-07-11T12:09:02.434Z,27.20
2018-07-11T12:11:31.760Z,27.80
2018-07-11T12:14:00.915Z,28.20
2018-07-11T12:18:59.250Z,28.80
2018-07-11T12:21:28.848Z,29.10
2018-07-11T12:23:58.175Z,29.20
2018-07-11T12:26:27.444Z,29.20
2018-07-11T12:28:56.682Z,29.80
2018-07-11T12:31:25.810Z,30.00
2018-07-11T12:36:23.882Z,29.60
2018-07-11T12:38:55.188Z,29.30
2018-07-11T12:41:24.944Z,29.40
2018-07-11T12:43:54.261Z,29.90
2018-07-11T12:46:23.406Z,30.10
2018-07-11T12:48:57.819Z,30.00
2018-07-11T12:51:27.000Z,29.80
2018-07-11T12:56:25.237Z,29.20
2018-07-11T12:58:54.689Z,28.90
2018-07-11T13:01:23.875Z,28.50
2018-07-11T13:03:55.446Z,28.10
2018-07-11T13:06:26.303Z,27.70
2018-07-11T13:08:55.349Z,27.40
2018-07-11T13:11:24.566Z,27.20
2018-07-11T13:13:53.923Z,27.10
2018-07-11T13:16:23.015Z,26.90
2018-07-11T13:18:52.113Z,26.60
2018-07-11T13:21:21.361Z,26.10
2018-07-11T13:23:50.504Z,25.60
2018-07-11T13:26:19.742Z,25.30
2018-07-11T13:28:48.949Z,25.00
2018-07-11T13:31:18.420Z,24.70
2018-07-11T13:33:47.873Z,24.40
2018-07-11T13:36:17.135Z,24.30
2018-07-11T13:38:46.204Z,24.20
2018-07-11T13:41:15.542Z,23.90
2018-07-11T13:43:44.794Z,23.80
2018-07-11T13:48:42.947Z,23.60
2018-07-11T13:51:12.368Z,23.50
2018-07-11T13:53:41.554Z,23.40
2018-07-11T13:58:41.314Z,23.20
2018-07-11T14:01:10.631Z,23.20
2018-07-11T14:03:40.107Z,23.20
2018-07-11T14:06:09.658Z,23.20
2018-07-11T14:11:07.440Z,23.00
2018-07-11T14:13:36.684Z,22.80
2018-07-11T14:16:05.998Z,22.70
2018-07-11T14:18:35.264Z,22.50
2018-07-11T14:23:39.495Z,22.00
2018-07-11T14:26:09.241Z,21.60
2018-07-11T14:28:43.038Z,21.40
2018-07-11T14:31:12.572Z,21.20
2018-07-11T14:33:47.561Z,21.00
2018-07-11T14:36:17.212Z,20.90
2018-07-11T14:38:46.595Z,20.60
2018-07-11T14:41:16.025Z,20.40
2018-07-11T14:43:45.283Z,20.10
2018-07-11T14:46:15.199Z,19.80
2018-07-11T14:48:44.284Z,19.70
2018-07-11T14:51:13.816Z,19.60
2018-07-11T14:53:42.830Z,19.50
2018-07-11T14:56:12.241Z,19.50
2018-07-11T14:58:41.442Z,19.40
2018-07-11T15:01:10.624Z,19.20
2018-07-11T15:03:40.030Z,19.00
2018-07-11T15:06:09.292Z,18.90
2018-07-11T15:08:38.971Z,18.90
2018-07-11T15:11:08.793Z,18.90
2018-07-11T15:13:38.031Z,18.70
2018-07-11T15:16:07.107Z,18.60
2018-07-11T15:18:36.450Z,18.50
2018-07-11T15:21:06.801Z,18.40
2018-07-11T15:23:36.030Z,18.40
2018-07-11T15:26:05.907Z,18.20
2018-07-11T15:28:35.247Z,18.20
2018-07-11T15:31:04.745Z,18.10
2018-07-11T15:33:34.171Z,18.10
2018-07-11T15:36:03.501Z,18.20
2018-07-11T15:38:32.712Z,18.20
2018-07-11T15:41:02.347Z,18.20
2018-07-11T15:43:31.644Z,18.10
2018-07-11T15:46:00.858Z,18.00
2018-07-11T15:48:30.294Z,17.80
2018-07-11T15:50:59.817Z,17.60
2018-07-11T15:53:30.116Z,17.50
2018-07-11T15:56:00.531Z,17.40
2018-07-11T15:58:35.135Z,17.40
2018-07-11T16:01:06.091Z,17.30
2018-07-11T16:03:42.212Z,17.30
2018-07-11T16:06:11.500Z,17.20
2018-07-11T16:08:46.535Z,17.10
2018-07-11T16:11:15.780Z,17.10
2018-07-11T16:16:14.048Z,17.20
2018-07-11T16:18:43.261Z,17.20
2018-07-11T16:21:12.499Z,17.30
2018-07-11T16:23:41.912Z,17.40
2018-07-11T16:28:40.868Z,17.50
2018-07-11T16:31:10.376Z,17.50
2018-07-11T16:33:39.572Z,17.30
2018-07-11T16:36:08.874Z,17.10
2018-07-11T16:38:38.112Z,16.90
2018-07-11T16:43:36.320Z,16.70
2018-07-11T16:46:05.541Z,16.60
2018-07-11T16:48:35.079Z,16.50
2018-07-11T16:51:04.483Z,16.40
2018-07-11T16:53:33.778Z,16.30
2018-07-11T16:56:04.002Z,16.30
2018-07-11T16:58:39.597Z,16.30
2018-07-11T17:01:09.830Z,16.40
2018-07-11T17:03:41.876Z,16.40
2018-07-11T17:06:11.844Z,16.40
2018-07-11T17:08:49.041Z,16.40
2018-07-11T17:11:25.523Z,16.30
2018-07-11T17:13:57.502Z,16.40
2018-07-11T17:17:33.888Z,16.40
2018-07-11T17:20:07.604Z,16.50
2018-07-11T17:23:00.537Z,16.40
2018-07-11T17:25:32.881Z,16.30
2018-07-11T17:28:04.187Z,16.10
2018-07-11T17:30:40.475Z,16.00
2018-07-11T17:33:13.878Z,15.80
2018-07-11T17:35:52.710Z,15.60
2018-07-11T17:38:25.892Z,15.50
2018-07-11T17:40:56.908Z,15.40
2018-07-11T17:43:37.958Z,15.30
2018-07-11T17:46:08.571Z,15.20
2018-07-11T17:48:48.390Z,15.20
2018-07-11T17:51:26.496Z,15.10
2018-07-11T17:53:58.127Z,15.10
2018-07-11T17:56:41.978Z,15.10
2018-07-11T17:59:14.017Z,15.10
2018-07-11T18:01:49.705Z,15.20
2018-07-11T18:04:27.739Z,15.20
2018-07-11T18:09:13.189Z,15.10
2018-07-11T18:11:59.385Z,15.10
2018-07-11T18:15:02.861Z,15.00
2018-07-11T18:17:42.290Z,15.00
2018-07-11T18:20:31.082Z,14.90
2018-07-11T18:25:17.757Z,14.90
2018-07-11T18:27:55.824Z,14.90
2018-07-11T18:30:44.733Z,15.00
2018-07-11T18:33:21.864Z,15.00
2018-07-11T18:35:59.060Z,14.90
2018-07-11T18:41:05.458Z,14.90
2018-07-11T18:46:24.128Z,15.00
2018-07-11T18:49:08.998Z,15.00
2018-07-11T18:54:21.162Z,15.00
2018-07-11T18:57:14.726Z,15.00
2018-07-11T19:00:28.247Z,15.00
2018-07-11T19:03:08.795Z,15.00
2018-07-11T19:05:50.801Z,15.00
2018-07-11T19:08:33.852Z,15.00
2018-07-11T19:13:44.276Z,14.90
2018-07-11T19:16:21.849Z,14.80
2018-07-11T19:19:00.646Z,14.70
2018-07-11T19:23:46.226Z,14.60
2018-07-11T19:28:26.538Z,14.50
2018-07-11T19:34:41.496Z,14.20
2018-07-11T19:38:35.522Z,14.20
2018-07-11T19:41:16.791Z,14.20
2018-07-11T19:44:31.343Z,14.20
2018-07-11T19:47:12.655Z,14.20
2018-07-11T19:49:54.860Z,14.10
2018-07-11T19:57:02.815Z,14.10
2018-07-11T19:59:33.868Z,14.20
2018-07-11T20:02:03.355Z,14.20
2018-07-11T20:07:01.774Z,14.20
2018-07-11T20:09:31.252Z,14.20
2018-07-11T20:12:00.916Z,14.30
2018-07-11T20:14:31.373Z,14.30
2018-07-11T20:17:01.120Z,14.30
2018-07-11T20:19:31.218Z,14.30
2018-07-11T20:22:01.080Z,14.30
2018-07-11T20:24:31.506Z,14.30
2018-07-11T20:27:00.782Z,14.30
2018-07-11T20:29:31.105Z,14.30
2018-07-11T20:32:01.175Z,14.30
2018-07-11T20:34:31.583Z,14.30
2018-07-11T20:39:31.438Z,14.30
2018-07-11T20:42:01.321Z,14.30
2018-07-11T20:44:31.652Z,14.30
2018-07-11T20:47:02.679Z,14.30
2018-07-11T20:49:33.440Z,14.30
2018-07-11T20:52:04.487Z,14.20
2018-07-11T20:54:34.100Z,14.20
2018-07-11T20:57:03.317Z,14.20
2018-07-11T21:01:51.280Z,14.10
2018-07-11T21:06:40.369Z,14.20
2018-07-11T21:12:03.116Z,14.10
2018-07-11T21:15:43.039Z,14.10
2018-07-11T21:18:38.375Z,14.10
2018-07-11T21:23:36.692Z,14.20
2018-07-11T21:28:35.057Z,14.20
2018-07-11T21:31:04.424Z,14.30
2018-07-11T21:33:33.749Z,14.30
2018-07-11T21:36:03.117Z,14.30
2018-07-11T21:38:32.937Z,14.40
2018-07-11T21:43:31.003Z,14.50
2018-07-11T21:46:00.367Z,14.50
2018-07-11T21:48:29.470Z,14.50
2018-07-11T21:50:59.211Z,14.50
2018-07-11T21:53:28.625Z,14.50
2018-07-11T21:55:57.843Z,14.50
2018-07-11T21:58:27.193Z,14.50
2018-07-11T22:03:29.839Z,14.50
2018-07-11T22:05:59.218Z,14.50
2018-07-11T22:08:28.571Z,14.50
2018-07-11T22:10:57.847Z,14.60
2018-07-11T22:18:40.780Z,14.60
2018-07-11T22:23:38.407Z,14.60
2018-07-11T22:28:34.828Z,14.60
2018-07-11T22:31:02.858Z,14.60
2018-07-11T22:33:31.009Z,14.70
2018-07-11T22:35:59.123Z,14.70
2018-07-11T22:38:33.691Z,14.70
2018-07-11T22:41:01.832Z,14.60
2018-07-11T22:43:29.949Z,14.50
2018-07-11T22:45:58.124Z,14.40
2018-07-11T22:48:26.281Z,14.40
2018-07-11T22:50:54.294Z,14.30
2018-07-11T22:53:22.556Z,14.30
2018-07-11T22:55:50.780Z,14.30
2018-07-11T22:58:18.819Z,14.30
2018-07-11T23:00:46.846Z,14.40
2018-07-11T23:03:14.828Z,14.30
2018-07-11T23:05:42.967Z,14.30
2018-07-11T23:08:11.169Z,14.30
2018-07-11T23:10:39.198Z,14.20
2018-07-11T23:13:07.168Z,14.20
2018-07-11T23:15:35.195Z,14.10
2018-07-11T23:18:03.185Z,14.00
2018-07-11T23:22:59.534Z,13.80
2018-07-11T23:25:27.529Z,13.70
2018-07-11T23:30:23.799Z,13.60
2018-07-11T23:32:51.902Z,13.50
2018-07-11T23:35:19.924Z,13.40
2018-07-11T23:37:47.958Z,13.40
2018-07-11T23:40:16.256Z,13.30
2018-07-11T23:42:44.401Z,13.30
2018-07-11T23:45:12.467Z,13.20
2018-07-11T23:47:40.600Z,13.20
2018-07-11T23:50:08.609Z,13.10
2018-07-11T23:52:36.714Z,13.10
2018-07-11T23:55:04.812Z,13.10
2018-07-11T23:57:32.868Z,13.10
